TOM9609 LEIB-LEPA
Flight info
| Callsign | TOM9609 |
|---|---|
| Flight time | 0h 18m |
| Altitude | 8000 |
| Route | LAMPA |
| Aircraft | B738/M-SDE2E3FGHIRWXY/LB1 |
Departure
| Time | 2026-05-06 21:11 |
|---|---|
| Airport | Ibiza Airport (LEIB) |
Arrival
| Time | 2026-05-06 21:29 |
|---|---|
| Airport | Palma de Mallorca Airport (LEPA) |
| Time | Latitude | Longitude | Altitude | Speed | Heading |
|---|---|---|---|---|---|
| 2026-05-06 21:00 | 38.87414 | 1.36897 | 31 ft | 0 kts | 21° |
| 2026-05-06 21:07 | 38.87427 | 1.36895 | 31 ft | 7 kts | 342° |
| 2026-05-06 21:08 | 38.87432 | 1.36796 | 30 ft | 17 kts | 206° |
| 2026-05-06 21:08 | 38.87305 | 1.36852 | 24 ft | 20 kts | 155° |
| 2026-05-06 21:08 | 38.87243 | 1.36770 | 23 ft | 14 kts | 236° |
| 2026-05-06 21:08 | 38.87180 | 1.36690 | 22 ft | 7 kts | 258° |
| 2026-05-06 21:09 | 38.87176 | 1.36656 | 22 ft | 6 kts | 261° |
| 2026-05-06 21:09 | 38.87137 | 1.36512 | 21 ft | 25 kts | 243° |
| 2026-05-06 21:09 | 38.87051 | 1.36303 | 19 ft | 27 kts | 241° |
| 2026-05-06 21:09 | 38.86958 | 1.36078 | 16 ft | 29 kts | 244° |
| 2026-05-06 21:10 | 38.86863 | 1.35848 | 12 ft | 24 kts | 234° |
| 2026-05-06 21:10 | 38.86721 | 1.35883 | 12 ft | 22 kts | 136° |
| 2026-05-06 21:10 | 38.86762 | 1.36059 | 14 ft | 23 kts | 62° |
| 2026-05-06 21:10 | 38.86922 | 1.36447 | 17 ft | 89 kts | 62° |
| 2026-05-06 21:11 | 38.87326 | 1.37420 | 49 ft | 154 kts | 62° |
| 2026-05-06 21:11 | 38.87791 | 1.38628 | 858 ft | 153 kts | 65° |
| 2026-05-06 21:11 | 38.88258 | 1.39922 | 1434 ft | 178 kts | 67° |
| 2026-05-06 21:11 | 38.88638 | 1.41418 | 2366 ft | 180 kts | 79° |
| 2026-05-06 21:12 | 38.88824 | 1.43043 | 3013 ft | 199 kts | 80° |
| 2026-05-06 21:12 | 38.89117 | 1.44835 | 3928 ft | 205 kts | 76° |
| 2026-05-06 21:12 | 38.89453 | 1.46625 | 4830 ft | 212 kts | 76° |
| 2026-05-06 21:12 | 38.89797 | 1.48457 | 5761 ft | 217 kts | 76° |
| 2026-05-06 21:13 | 38.90183 | 1.50315 | 6595 ft | 226 kts | 68° |
| 2026-05-06 21:13 | 38.91023 | 1.52099 | 7313 ft | 242 kts | 51° |
| 2026-05-06 21:13 | 38.92129 | 1.53832 | 7836 ft | 268 kts | 50° |
| 2026-05-06 21:13 | 38.93370 | 1.55852 | 7952 ft | 304 kts | 52° |
| 2026-05-06 21:14 | 38.94668 | 1.58119 | 7937 ft | 320 kts | 54° |
| 2026-05-06 21:14 | 38.95954 | 1.60451 | 7942 ft | 323 kts | 54° |
| 2026-05-06 21:14 | 38.97242 | 1.62870 | 7943 ft | 338 kts | 55° |
| 2026-05-06 21:14 | 38.98592 | 1.65418 | 7941 ft | 351 kts | 56° |
| 2026-05-06 21:15 | 38.99960 | 1.67938 | 7920 ft | 336 kts | 54° |
| 2026-05-06 21:15 | 39.01283 | 1.70326 | 7939 ft | 312 kts | 54° |
| 2026-05-06 21:15 | 39.02502 | 1.72517 | 7944 ft | 301 kts | 54° |
| 2026-05-06 21:15 | 39.03719 | 1.74703 | 7943 ft | 301 kts | 54° |
| 2026-05-06 21:16 | 39.04941 | 1.76910 | 7941 ft | 301 kts | 54° |
| 2026-05-06 21:16 | 39.06140 | 1.79092 | 7943 ft | 301 kts | 54° |
| 2026-05-06 21:16 | 39.07356 | 1.81315 | 7945 ft | 301 kts | 55° |
| 2026-05-06 21:16 | 39.08544 | 1.83500 | 7944 ft | 301 kts | 55° |
| 2026-05-06 21:17 | 39.09753 | 1.85724 | 7944 ft | 300 kts | 55° |
| 2026-05-06 21:17 | 39.10945 | 1.87916 | 7943 ft | 300 kts | 55° |
| 2026-05-06 21:17 | 39.12152 | 1.90129 | 7942 ft | 300 kts | 55° |
| 2026-05-06 21:17 | 39.13343 | 1.92316 | 7945 ft | 300 kts | 55° |
| 2026-05-06 21:18 | 39.14543 | 1.94522 | 7945 ft | 299 kts | 55° |
| 2026-05-06 21:18 | 39.15731 | 1.96709 | 7946 ft | 299 kts | 55° |
| 2026-05-06 21:18 | 39.16919 | 1.98896 | 7946 ft | 300 kts | 54° |
| 2026-05-06 21:18 | 39.18112 | 2.01091 | 7946 ft | 301 kts | 54° |
| 2026-05-06 21:19 | 39.19313 | 2.03300 | 7946 ft | 301 kts | 54° |
| 2026-05-06 21:19 | 39.20512 | 2.05505 | 7948 ft | 301 kts | 54° |
| 2026-05-06 21:19 | 39.21715 | 2.07723 | 7946 ft | 301 kts | 55° |
| 2026-05-06 21:19 | 39.22907 | 2.09926 | 7947 ft | 300 kts | 55° |
| 2026-05-06 21:20 | 39.24111 | 2.12154 | 7946 ft | 300 kts | 55° |
| 2026-05-06 21:20 | 39.25296 | 2.14349 | 7892 ft | 297 kts | 55° |
| 2026-05-06 21:20 | 39.26460 | 2.16504 | 7499 ft | 293 kts | 54° |
| 2026-05-06 21:20 | 39.27623 | 2.18656 | 6969 ft | 293 kts | 55° |
| 2026-05-06 21:21 | 39.28786 | 2.20810 | 6504 ft | 291 kts | 54° |
| 2026-05-06 21:21 | 39.29922 | 2.22916 | 6179 ft | 283 kts | 54° |
| 2026-05-06 21:21 | 39.31026 | 2.24963 | 6045 ft | 269 kts | 55° |
| 2026-05-06 21:21 | 39.32061 | 2.26888 | 5869 ft | 259 kts | 55° |
| 2026-05-06 21:22 | 39.33087 | 2.28804 | 5520 ft | 257 kts | 55° |
| 2026-05-06 21:22 | 39.34105 | 2.30704 | 5172 ft | 255 kts | 55° |
| 2026-05-06 21:22 | 39.35109 | 2.32578 | 4825 ft | 253 kts | 55° |
| 2026-05-06 21:22 | 39.36103 | 2.34427 | 4479 ft | 251 kts | 55° |
| 2026-05-06 21:23 | 39.37087 | 2.36259 | 4134 ft | 249 kts | 55° |
| 2026-05-06 21:23 | 39.38078 | 2.38105 | 3784 ft | 247 kts | 56° |
| 2026-05-06 21:23 | 39.39047 | 2.39911 | 3441 ft | 246 kts | 55° |
| 2026-05-06 21:23 | 39.40020 | 2.41726 | 3164 ft | 241 kts | 55° |
| 2026-05-06 21:24 | 39.40950 | 2.43461 | 2978 ft | 234 kts | 56° |
| 2026-05-06 21:24 | 39.41874 | 2.45182 | 2794 ft | 233 kts | 55° |
| 2026-05-06 21:24 | 39.42811 | 2.46940 | 2614 ft | 240 kts | 56° |
| 2026-05-06 21:24 | 39.43758 | 2.48716 | 2422 ft | 238 kts | 55° |
| 2026-05-06 21:25 | 39.44758 | 2.50403 | 2234 ft | 231 kts | 53° |
| 2026-05-06 21:25 | 39.45671 | 2.52065 | 2048 ft | 225 kts | 58° |
| 2026-05-06 21:25 | 39.46476 | 2.53753 | 1884 ft | 213 kts | 60° |
| 2026-05-06 21:25 | 39.47213 | 2.55345 | 1868 ft | 201 kts | 60° |
| 2026-05-06 21:26 | 39.47934 | 2.56859 | 1858 ft | 190 kts | 59° |
| 2026-05-06 21:26 | 39.48612 | 2.58269 | 1864 ft | 180 kts | 59° |
| 2026-05-06 21:26 | 39.49265 | 2.59640 | 1866 ft | 179 kts | 59° |
| 2026-05-06 21:26 | 39.49914 | 2.61002 | 1838 ft | 178 kts | 59° |
| 2026-05-06 21:27 | 39.50571 | 2.62380 | 1610 ft | 179 kts | 59° |
| 2026-05-06 21:27 | 39.51200 | 2.63700 | 1369 ft | 166 kts | 59° |
| 2026-05-06 21:27 | 39.51790 | 2.64939 | 1155 ft | 158 kts | 59° |
| 2026-05-06 21:27 | 39.52340 | 2.66098 | 944 ft | 147 kts | 59° |
| 2026-05-06 21:28 | 39.52842 | 2.67156 | 810 ft | 129 kts | 59° |
| 2026-05-06 21:28 | 39.53330 | 2.68143 | 599 ft | 129 kts | 58° |
| 2026-05-06 21:28 | 39.53802 | 2.69142 | 425 ft | 132 kts | 59° |
| 2026-05-06 21:28 | 39.54283 | 2.70173 | 269 ft | 135 kts | 59° |
| 2026-05-06 21:29 | 39.54777 | 2.71209 | 76 ft | 136 kts | 58° |
| 2026-05-06 21:29 | 39.55249 | 2.72202 | 36 ft | 106 kts | 59° |
| 2026-05-06 21:29 | 39.55498 | 2.72723 | 36 ft | 27 kts | 58° |
| 2026-05-06 21:29 | 39.55462 | 2.72861 | 36 ft | 17 kts | 129° |
| 2026-05-06 21:30 | 39.55413 | 2.72947 | 36 ft | 0 kts | 124° |
| 2026-05-06 21:30 | 39.55405 | 2.72956 | 36 ft | 2 kts | 159° |
| 2026-05-06 21:30 | 39.55382 | 2.72964 | 36 ft | 4 kts | 164° |
| 2026-05-06 21:30 | 39.55342 | 2.72992 | 36 ft | 8 kts | 150° |
| 2026-05-06 21:31 | 39.55331 | 2.72992 | 36 ft | 2 kts | 242° |
| 2026-05-06 21:31 | 39.55328 | 2.72961 | 36 ft | 3 kts | 261° |
| 2026-05-06 21:31 | 39.55307 | 2.72910 | 36 ft | 13 kts | 239° |
| 2026-05-06 21:31 | 39.55268 | 2.72828 | 36 ft | 6 kts | 227° |
| 2026-05-06 21:32 | 39.55223 | 2.72806 | 36 ft | 7 kts | 193° |
| 2026-05-06 21:32 | 39.55208 | 2.72801 | 36 ft | 0 kts | 193° |